Accueil
METAR-TAF:

METAR-TAF

Aéroports :

Newquay Cornwall, Angleterre

Aéroport de Newquay Cornouailles

latitude: 50-26N, longitude: 005-00W, altitude: 119 m

Observation

Le bulletin a été fait il y a 4 heures et 38 minutes, à 18:20 UTC
Vent 22 kt de ouest/nord-ouest
Température 9°C
Humidité 81%
Pression 1007 hPa
Visibilité 10 km ou plus
Quelques nuages à une hauteur de 3000 ft

METAR: EGHQ 201820Z 30022KT 9999 FEW030 09/06 Q1007

Heure: 22:58 (22:58 UTC)

Prévision

Le bulletin a été fait il y a 8 heures et 48 minutes, à 14:10 UTC
Prévision valable du 20 à 15 UTC au 20 à 19 UTC
Vent 22 kt de ouest avec des rafales jusqu'à 32 kt
Visibilité: 8000 m
Nuages fragmentés à une hauteur de 300 ft
Evoluant progressivement
du 20 à 15 UTC au 20 à 18 UTC
Visibilité 10 km ou plus
Nuages épars à une hauteur de 300 ft

TAF: EGHQ 201410Z 2015/2019 28022G32KT 8000 BKN003 BECMG 2015/2018 9999 SCT003

Observations et prévisions météorologiques de plus de 4000 aéroports (messages METAR et TAF).

Les stations disponibles sont représentées par des disques jaunes et rouges sur la carte.

Passer la souris dessus pour voir le nom de la station.

Cliquer dessus pour voir les observations et prévisions météorologiques.

Pour changer de carte: cliquez sur les boutons verts avec une croix noire pour zoomer, sur le bouton vert avec un tiret pour effectuer un zoom arrière, ou sur les flèches vertes pour les cartes adjacentes.


METAR-TAF: